sensor_id;sensor_type;location;lat;lon;timestamp;pressure;altitude;pressure_sealevel;temperature;humidity
7966;BME280;4028;43.272;26.932;2023-03-14T00:01:46;99497.91;;;4.30;86.73
7966;BME280;4028;43.272;26.932;2023-03-14T00:04:12;99492.97;;;4.11;89.93
7966;BME280;4028;43.272;26.932;2023-03-14T00:06:37;99492.19;;;4.24;85.90
7966;BME280;4028;43.272;26.932;2023-03-14T00:09:03;99492.13;;;4.11;86.80
7966;BME280;4028;43.272;26.932;2023-03-14T00:11:28;99491.63;;;4.04;88.73
7966;BME280;4028;43.272;26.932;2023-03-14T00:13:55;99489.59;;;3.95;91.49
7966;BME280;4028;43.272;26.932;2023-03-14T00:16:20;99489.78;;;4.06;89.62
7966;BME280;4028;43.272;26.932;2023-03-14T00:18:46;99495.84;;;4.07;89.11
7966;BME280;4028;43.272;26.932;2023-03-14T00:21:12;99491.00;;;4.01;91.65
7966;BME280;4028;43.272;26.932;2023-03-14T00:23:40;99503.06;;;4.17;88.59
7966;BME280;4028;43.272;26.932;2023-03-14T00:26:16;99497.63;;;4.06;86.31
7966;BME280;4028;43.272;26.932;2023-03-14T00:28:43;99480.97;;;3.93;88.83
7966;BME280;4028;43.272;26.932;2023-03-14T00:31:11;99470.22;;;3.83;89.12
7966;BME280;4028;43.272;26.932;2023-03-14T00:33:37;99474.81;;;3.94;88.84
7966;BME280;4028;43.272;26.932;2023-03-14T00:36:05;99481.94;;;3.92;87.52
7966;BME280;4028;43.272;26.932;2023-03-14T00:38:32;99481.47;;;3.85;89.92
7966;BME280;4028;43.272;26.932;2023-03-14T00:40:58;99479.22;;;3.94;88.29
7966;BME280;4028;43.272;26.932;2023-03-14T00:43:24;99484.66;;;3.90;88.73
7966;BME280;4028;43.272;26.932;2023-03-14T00:45:51;99488.75;;;3.80;89.83
7966;BME280;4028;43.272;26.932;2023-03-14T00:48:18;99487.72;;;3.69;90.28
7966;BME280;4028;43.272;26.932;2023-03-14T00:50:44;99474.06;;;3.63;89.89
7966;BME280;4028;43.272;26.932;2023-03-14T00:53:10;99479.94;;;3.67;90.01
7966;BME280;4028;43.272;26.932;2023-03-14T00:55:39;99477.53;;;3.64;92.72
7966;BME280;4028;43.272;26.932;2023-03-14T00:58:06;99473.97;;;3.65;92.53
7966;BME280;4028;43.272;26.932;2023-03-14T01:00:32;99477.34;;;3.67;92.86
7966;BME280;4028;43.272;26.932;2023-03-14T01:02:57;99478.09;;;3.69;91.95
7966;BME280;4028;43.272;26.932;2023-03-14T01:05:23;99476.03;;;3.74;93.22
7966;BME280;4028;43.272;26.932;2023-03-14T01:07:49;99458.94;;;3.69;91.75
7966;BME280;4028;43.272;26.932;2023-03-14T01:10:15;99469.47;;;3.67;93.56
7966;BME280;4028;43.272;26.932;2023-03-14T01:12:41;99476.78;;;3.76;92.70
7966;BME280;4028;43.272;26.932;2023-03-14T01:15:07;99452.09;;;3.66;89.79
7966;BME280;4028;43.272;26.932;2023-03-14T01:17:33;99459.84;;;3.68;90.98
7966;BME280;4028;43.272;26.932;2023-03-14T01:19:59;99443.28;;;3.53;92.17
7966;BME280;4028;43.272;26.932;2023-03-14T01:22:25;99448.63;;;3.51;94.64
7966;BME280;4028;43.272;26.932;2023-03-14T01:24:50;99452.66;;;3.57;92.33
7966;BME280;4028;43.272;26.932;2023-03-14T01:27:15;99446.41;;;3.59;90.44
7966;BME280;4028;43.272;26.932;2023-03-14T01:29:41;99452.56;;;3.58;91.20
7966;BME280;4028;43.272;26.932;2023-03-14T01:32:06;99453.31;;;3.60;93.10
7966;BME280;4028;43.272;26.932;2023-03-14T01:34:32;99447.69;;;3.52;94.05
7966;BME280;4028;43.272;26.932;2023-03-14T01:36:57;99453.69;;;3.54;93.93
7966;BME280;4028;43.272;26.932;2023-03-14T01:39:23;99446.56;;;3.42;95.25
7966;BME280;4028;43.272;26.932;2023-03-14T01:41:48;99446.34;;;3.31;97.46
7966;BME280;4028;43.272;26.932;2023-03-14T01:44:14;99442.53;;;3.36;97.94
7966;BME280;4028;43.272;26.932;2023-03-14T01:46:41;99447.31;;;3.44;97.23
7966;BME280;4028;43.272;26.932;2023-03-14T01:49:27;99449.94;;;3.44;96.32
7966;BME280;4028;43.272;26.932;2023-03-14T01:54:25;99438.88;;;3.25;100.00
7966;BME280;4028;43.272;26.932;2023-03-14T01:56:59;99448.41;;;3.26;100.00
7966;BME280;4028;43.272;26.932;2023-03-14T01:59:30;99441.38;;;3.26;99.89
7966;BME280;4028;43.272;26.932;2023-03-14T02:01:57;99455.41;;;3.25;99.02
7966;BME280;4028;43.272;26.932;2023-03-14T02:04:28;99451.41;;;3.34;97.77
7966;BME280;4028;43.272;26.932;2023-03-14T02:09:59;99455.78;;;3.19;98.77
7966;BME280;4028;43.272;26.932;2023-03-14T02:12:26;99454.03;;;3.34;97.09
7966;BME280;4028;43.272;26.932;2023-03-14T02:14:53;99448.03;;;3.18;96.49
7966;BME280;4028;43.272;26.932;2023-03-14T02:17:19;99445.22;;;3.21;97.32
7966;BME280;4028;43.272;26.932;2023-03-14T02:22:33;99441.34;;;2.98;98.36
7966;BME280;4028;43.272;26.932;2023-03-14T02:25:06;99448.66;;;2.91;99.78
7966;BME280;4028;43.272;26.932;2023-03-14T02:27:33;99446.91;;;2.92;99.08
7966;BME280;4028;43.272;26.932;2023-03-14T02:30:02;99452.31;;;2.89;100.00
7966;BME280;4028;43.272;26.932;2023-03-14T02:32:33;99451.63;;;2.85;99.04
7966;BME280;4028;43.272;26.932;2023-03-14T02:35:06;99445.84;;;2.80;99.41
7966;BME280;4028;43.272;26.932;2023-03-14T02:37:38;99436.47;;;2.76;100.00
7966;BME280;4028;43.272;26.932;2023-03-14T02:40:06;99428.47;;;2.79;100.00
7966;BME280;4028;43.272;26.932;2023-03-14T02:42:32;99427.22;;;2.70;100.00
7966;BME280;4028;43.272;26.932;2023-03-14T02:47:50;99415.59;;;2.60;100.00
7966;BME280;4028;43.272;26.932;2023-03-14T02:50:21;99389.34;;;2.47;100.00
7966;BME280;4028;43.272;26.932;2023-03-14T02:52:48;99412.97;;;2.76;100.00
7966;BME280;4028;43.272;26.932;2023-03-14T02:55:14;99417.91;;;2.80;100.00
7966;BME280;4028;43.272;26.932;2023-03-14T02:57:39;99403.28;;;2.78;100.00
7966;BME280;4028;43.272;26.932;2023-03-14T03:00:06;99419.22;;;2.73;100.00
7966;BME280;4028;43.272;26.932;2023-03-14T03:02:32;99412.13;;;2.75;100.00
7966;BME280;4028;43.272;26.932;2023-03-14T03:04:58;99406.28;;;2.86;100.00
7966;BME280;4028;43.272;26.932;2023-03-14T03:07:23;99418.44;;;2.87;98.85
7966;BME280;4028;43.272;26.932;2023-03-14T03:09:49;99414.38;;;2.81;100.00
7966;BME280;4028;43.272;26.932;2023-03-14T03:12:14;99417.59;;;2.71;100.00
7966;BME280;4028;43.272;26.932;2023-03-14T03:14:40;99412.31;;;2.72;100.00
7966;BME280;4028;43.272;26.932;2023-03-14T03:17:06;99402.44;;;2.77;96.35
7966;BME280;4028;43.272;26.932;2023-03-14T03:19:33;99396.22;;;2.64;94.34
7966;BME280;4028;43.272;26.932;2023-03-14T03:21:59;99407.03;;;2.58;96.39
7966;BME280;4028;43.272;26.932;2023-03-14T03:24:25;99408.13;;;2.54;95.86
7966;BME280;4028;43.272;26.932;2023-03-14T03:26:51;99397.88;;;2.51;97.45
7966;BME280;4028;43.272;26.932;2023-03-14T03:29:16;99400.59;;;2.64;96.04
7966;BME280;4028;43.272;26.932;2023-03-14T03:31:42;99392.88;;;2.62;95.97
7966;BME280;4028;43.272;26.932;2023-03-14T03:34:07;99396.75;;;2.55;97.81
7966;BME280;4028;43.272;26.932;2023-03-14T03:36:33;99402.16;;;2.52;99.10
7966;BME280;4028;43.272;26.932;2023-03-14T03:38:59;99409.06;;;2.53;98.19
7966;BME280;4028;43.272;26.932;2023-03-14T03:41:24;99401.22;;;2.53;96.89
7966;BME280;4028;43.272;26.932;2023-03-14T03:43:50;99411.19;;;2.46;97.47
7966;BME280;4028;43.272;26.932;2023-03-14T03:46:16;99407.97;;;2.41;99.04
7966;BME280;4028;43.272;26.932;2023-03-14T03:48:41;99401.47;;;2.48;97.81
7966;BME280;4028;43.272;26.932;2023-03-14T03:51:07;99407.63;;;2.47;98.11
7966;BME280;4028;43.272;26.932;2023-03-14T03:53:32;99391.78;;;2.34;99.44
7966;BME280;4028;43.272;26.932;2023-03-14T03:55:58;99397.28;;;2.46;99.04
7966;BME280;4028;43.272;26.932;2023-03-14T03:58:23;99403.41;;;2.45;99.65
7966;BME280;4028;43.272;26.932;2023-03-14T04:00:48;99398.78;;;2.34;100.00
7966;BME280;4028;43.272;26.932;2023-03-14T04:03:14;99403.88;;;2.21;100.00
7966;BME280;4028;43.272;26.932;2023-03-14T04:05:39;99400.22;;;2.24;100.00
7966;BME280;4028;43.272;26.932;2023-03-14T04:08:05;99421.19;;;2.38;100.00
7966;BME280;4028;43.272;26.932;2023-03-14T04:10:34;99410.06;;;2.34;100.00
7966;BME280;4028;43.272;26.932;2023-03-14T04:13:00;99426.34;;;2.40;100.00
7966;BME280;4028;43.272;26.932;2023-03-14T04:15:25;99411.19;;;2.30;100.00
7966;BME280;4028;43.272;26.932;2023-03-14T04:17:51;99417.00;;;2.20;100.00
7966;BME280;4028;43.272;26.932;2023-03-14T04:20:16;99404.72;;;2.22;100.00
7966;BME280;4028;43.272;26.932;2023-03-14T04:22:42;99412.44;;;2.07;100.00
7966;BME280;4028;43.272;26.932;2023-03-14T04:25:08;99389.69;;;1.94;100.00
7966;BME280;4028;43.272;26.932;2023-03-14T04:27:34;99406.16;;;2.12;100.00
7966;BME280;4028;43.272;26.932;2023-03-14T04:29:59;99405.44;;;2.24;100.00
7966;BME280;4028;43.272;26.932;2023-03-14T04:32:25;99410.09;;;2.19;100.00
7966;BME280;4028;43.272;26.932;2023-03-14T04:34:50;99406.53;;;2.20;100.00
7966;BME280;4028;43.272;26.932;2023-03-14T04:37:16;99394.34;;;2.20;100.00
7966;BME280;4028;43.272;26.932;2023-03-14T04:39:41;99399.28;;;2.25;100.00
7966;BME280;4028;43.272;26.932;2023-03-14T04:42:07;99406.72;;;2.32;100.00
7966;BME280;4028;43.272;26.932;2023-03-14T04:44:32;99400.91;;;2.27;100.00
7966;BME280;4028;43.272;26.932;2023-03-14T04:46:58;99403.19;;;2.18;100.00
7966;BME280;4028;43.272;26.932;2023-03-14T04:49:23;99406.53;;;2.20;100.00
7966;BME280;4028;43.272;26.932;2023-03-14T04:51:49;99393.19;;;2.10;100.00
7966;BME280;4028;43.272;26.932;2023-03-14T04:54:17;99404.88;;;2.19;100.00
7966;BME280;4028;43.272;26.932;2023-03-14T04:56:42;99402.25;;;2.19;100.00
7966;BME280;4028;43.272;26.932;2023-03-14T04:59:08;99405.38;;;2.25;100.00
7966;BME280;4028;43.272;26.932;2023-03-14T05:01:34;99395.19;;;2.21;100.00
7966;BME280;4028;43.272;26.932;2023-03-14T05:03:59;99410.59;;;2.41;100.00
7966;BME280;4028;43.272;26.932;2023-03-14T05:06:25;99408.06;;;2.40;100.00
7966;BME280;4028;43.272;26.932;2023-03-14T05:08:50;99405.03;;;2.31;100.00
7966;BME280;4028;43.272;26.932;2023-03-14T05:11:16;99405.97;;;2.30;100.00
7966;BME280;4028;43.272;26.932;2023-03-14T05:13:41;99405.19;;;2.28;100.00
7966;BME280;4028;43.272;26.932;2023-03-14T05:16:09;99399.81;;;2.31;100.00
7966;BME280;4028;43.272;26.932;2023-03-14T05:18:35;99391.16;;;2.31;100.00
7966;BME280;4028;43.272;26.932;2023-03-14T05:21:01;99388.53;;;2.31;100.00
7966;BME280;4028;43.272;26.932;2023-03-14T05:23:27;99384.63;;;2.38;100.00
7966;BME280;4028;43.272;26.932;2023-03-14T05:25:52;99388.88;;;2.41;100.00
7966;BME280;4028;43.272;26.932;2023-03-14T05:28:18;99386.91;;;2.44;100.00
7966;BME280;4028;43.272;26.932;2023-03-14T05:30:43;99376.38;;;2.46;100.00
7966;BME280;4028;43.272;26.932;2023-03-14T05:33:09;99378.06;;;2.47;100.00
7966;BME280;4028;43.272;26.932;2023-03-14T05:35:34;99372.47;;;2.53;100.00
7966;BME280;4028;43.272;26.932;2023-03-14T05:37:59;99373.22;;;2.55;100.00
7966;BME280;4028;43.272;26.932;2023-03-14T05:40:25;99374.66;;;2.60;100.00
7966;BME280;4028;43.272;26.932;2023-03-14T05:42:50;99372.38;;;2.54;100.00
7966;BME280;4028;43.272;26.932;2023-03-14T05:45:17;99374.00;;;2.57;100.00
7966;BME280;4028;43.272;26.932;2023-03-14T05:47:43;99381.94;;;2.40;100.00
7966;BME280;4028;43.272;26.932;2023-03-14T05:50:09;99379.00;;;2.46;100.00
7966;BME280;4028;43.272;26.932;2023-03-14T05:52:35;99375.00;;;2.54;100.00
7966;BME280;4028;43.272;26.932;2023-03-14T05:55:01;99375.84;;;2.55;100.00
7966;BME280;4028;43.272;26.932;2023-03-14T05:57:26;99368.94;;;2.54;100.00
7966;BME280;4028;43.272;26.932;2023-03-14T05:59:52;99376.41;;;2.60;100.00
7966;BME280;4028;43.272;26.932;2023-03-14T06:02:17;99364.34;;;2.73;100.00
7966;BME280;4028;43.272;26.932;2023-03-14T06:04:43;99370.81;;;2.82;100.00
7966;BME280;4028;43.272;26.932;2023-03-14T06:07:08;99350.50;;;2.71;100.00
7966;BME280;4028;43.272;26.932;2023-03-14T06:09:34;99359.59;;;2.80;100.00
7966;BME280;4028;43.272;26.932;2023-03-14T06:11:59;99359.22;;;2.86;100.00
7966;BME280;4028;43.272;26.932;2023-03-14T06:14:25;99358.59;;;2.97;100.00
7966;BME280;4028;43.272;26.932;2023-03-14T06:16:50;99355.06;;;3.12;100.00
7966;BME280;4028;43.272;26.932;2023-03-14T06:19:16;99341.25;;;3.10;100.00
7966;BME280;4028;43.272;26.932;2023-03-14T06:21:42;99353.69;;;3.35;100.00
7966;BME280;4028;43.272;26.932;2023-03-14T06:24:07;99347.53;;;3.50;100.00
7966;BME280;4028;43.272;26.932;2023-03-14T06:26:33;99345.53;;;3.68;100.00
7966;BME280;4028;43.272;26.932;2023-03-14T06:28:58;99339.97;;;4.01;100.00
7966;BME280;4028;43.272;26.932;2023-03-14T06:31:29;99334.69;;;4.42;100.00
7966;BME280;4028;43.272;26.932;2023-03-14T06:33:55;99336.44;;;4.82;100.00
7966;BME280;4028;43.272;26.932;2023-03-14T06:36:21;99343.66;;;5.67;100.00
7966;BME280;4028;43.272;26.932;2023-03-14T06:38:46;99340.47;;;6.84;94.92
7966;BME280;4028;43.272;26.932;2023-03-14T06:41:11;99343.31;;;7.72;74.72
7966;BME280;4028;43.272;26.932;2023-03-14T06:43:37;99337.78;;;8.52;62.77
7966;BME280;4028;43.272;26.932;2023-03-14T06:46:02;99336.06;;;9.04;57.80
7966;BME280;4028;43.272;26.932;2023-03-14T06:48:28;99325.75;;;9.83;55.25
7966;BME280;4028;43.272;26.932;2023-03-14T06:50:53;99327.50;;;11.10;52.30
7966;BME280;4028;43.272;26.932;2023-03-14T06:53:19;99330.16;;;11.94;47.80
7966;BME280;4028;43.272;26.932;2023-03-14T06:55:44;99329.06;;;12.14;46.75
7966;BME280;4028;43.272;26.932;2023-03-14T06:58:11;99337.53;;;13.07;44.43
7966;BME280;4028;43.272;26.932;2023-03-14T07:00:37;99330.63;;;13.74;42.71
7966;BME280;4028;43.272;26.932;2023-03-14T07:03:02;99321.69;;;14.34;41.35
7966;BME280;4028;43.272;26.932;2023-03-14T07:05:28;99320.41;;;14.87;39.51
7966;BME280;4028;43.272;26.932;2023-03-14T07:07:53;99320.06;;;15.31;39.25
7966;BME280;4028;43.272;26.932;2023-03-14T07:10:19;99314.59;;;15.00;37.68
7966;BME280;4028;43.272;26.932;2023-03-14T07:12:45;99326.91;;;15.01;38.19
7966;BME280;4028;43.272;26.932;2023-03-14T07:15:10;99321.59;;;15.01;37.88
7966;BME280;4028;43.272;26.932;2023-03-14T07:17:36;99317.19;;;15.41;37.77
7966;BME280;4028;43.272;26.932;2023-03-14T07:20:02;99317.56;;;15.85;36.77
7966;BME280;4028;43.272;26.932;2023-03-14T07:22:29;99312.81;;;15.64;36.49
7966;BME280;4028;43.272;26.932;2023-03-14T07:24:55;99308.47;;;15.63;36.15
7966;BME280;4028;43.272;26.932;2023-03-14T07:27:20;99307.88;;;15.28;36.12
7966;BME280;4028;43.272;26.932;2023-03-14T07:29:46;99298.25;;;15.11;36.99
7966;BME280;4028;43.272;26.932;2023-03-14T07:32:11;99299.41;;;15.17;36.78
7966;BME280;4028;43.272;26.932;2023-03-14T07:34:40;99294.09;;;15.08;36.62
7966;BME280;4028;43.272;26.932;2023-03-14T07:37:06;99294.09;;;14.92;37.02
7966;BME280;4028;43.272;26.932;2023-03-14T07:39:31;99290.03;;;15.93;36.06
7966;BME280;4028;43.272;26.932;2023-03-14T07:41:57;99289.28;;;16.53;33.51
7966;BME280;4028;43.272;26.932;2023-03-14T07:44:22;99290.50;;;15.49;34.10
7966;BME280;4028;43.272;26.932;2023-03-14T07:46:48;99285.13;;;14.85;35.34
7966;BME280;4028;43.272;26.932;2023-03-14T07:49:13;99280.59;;;15.02;35.56
7966;BME280;4028;43.272;26.932;2023-03-14T07:51:39;99272.66;;;15.49;34.32
7966;BME280;4028;43.272;26.932;2023-03-14T07:54:04;99269.34;;;15.86;33.83
7966;BME280;4028;43.272;26.932;2023-03-14T07:56:30;99267.53;;;16.18;33.09
7966;BME280;4028;43.272;26.932;2023-03-14T07:58:56;99246.25;;;15.71;33.02
7966;BME280;4028;43.272;26.932;2023-03-14T08:01:22;99254.75;;;16.05;31.99
7966;BME280;4028;43.272;26.932;2023-03-14T08:03:47;99252.66;;;16.16;30.04
7966;BME280;4028;43.272;26.932;2023-03-14T08:06:13;99255.53;;;16.14;30.93
7966;BME280;4028;43.272;26.932;2023-03-14T08:08:38;99244.13;;;16.89;30.58
7966;BME280;4028;43.272;26.932;2023-03-14T08:11:05;99243.31;;;17.33;29.05
7966;BME280;4028;43.272;26.932;2023-03-14T08:13:31;99246.81;;;17.48;28.55
7966;BME280;4028;43.272;26.932;2023-03-14T08:15:56;99232.13;;;17.29;27.94
7966;BME280;4028;43.272;26.932;2023-03-14T08:18:22;99231.38;;;17.50;27.18
7966;BME280;4028;43.272;26.932;2023-03-14T08:20:47;99232.66;;;17.84;26.60
7966;BME280;4028;43.272;26.932;2023-03-14T08:23:13;99233.97;;;18.31;25.27
7966;BME280;4028;43.272;26.932;2023-03-14T08:25:38;99229.13;;;17.98;24.66
7966;BME280;4028;43.272;26.932;2023-03-14T08:28:04;99236.00;;;16.97;25.51
7966;BME280;4028;43.272;26.932;2023-03-14T08:30:29;99238.47;;;16.99;26.03
7966;BME280;4028;43.272;26.932;2023-03-14T08:32:58;99237.47;;;16.62;25.46
7966;BME280;4028;43.272;26.932;2023-03-14T08:35:24;99227.44;;;17.17;24.88
7966;BME280;4028;43.272;26.932;2023-03-14T08:37:50;99235.75;;;18.02;23.49
7966;BME280;4028;43.272;26.932;2023-03-14T08:40:17;99235.78;;;17.87;24.33
7966;BME280;4028;43.272;26.932;2023-03-14T08:42:43;99227.03;;;17.64;24.93
7966;BME280;4028;43.272;26.932;2023-03-14T08:45:10;99228.91;;;17.19;24.78
7966;BME280;4028;43.272;26.932;2023-03-14T08:47:36;99219.88;;;16.91;25.03
7966;BME280;4028;43.272;26.932;2023-03-14T08:50:03;99227.34;;;16.95;24.78
7966;BME280;4028;43.272;26.932;2023-03-14T08:52:30;99222.19;;;17.23;24.60
7966;BME280;4028;43.272;26.932;2023-03-14T08:54:56;99211.56;;;17.45;23.93
7966;BME280;4028;43.272;26.932;2023-03-14T08:57:21;99203.75;;;17.94;23.66
7966;BME280;4028;43.272;26.932;2023-03-14T08:59:47;99207.69;;;18.41;23.28
7966;BME280;4028;43.272;26.932;2023-03-14T09:02:12;99199.47;;;18.21;23.73
7966;BME280;4028;43.272;26.932;2023-03-14T09:04:38;99194.00;;;17.86;24.28
7966;BME280;4028;43.272;26.932;2023-03-14T09:07:03;99188.16;;;17.47;24.74
7966;BME280;4028;43.272;26.932;2023-03-14T09:09:29;99186.22;;;17.40;24.16
7966;BME280;4028;43.272;26.932;2023-03-14T09:11:56;99207.13;;;17.52;23.54
7966;BME280;4028;43.272;26.932;2023-03-14T09:14:21;99192.28;;;17.49;23.83
7966;BME280;4028;43.272;26.932;2023-03-14T09:16:47;99197.47;;;17.21;24.33
7966;BME280;4028;43.272;26.932;2023-03-14T09:19:12;99183.19;;;16.84;24.37
7966;BME280;4028;43.272;26.932;2023-03-14T09:21:38;99184.91;;;17.51;24.23
7966;BME280;4028;43.272;26.932;2023-03-14T09:24:04;99179.75;;;17.86;24.01
7966;BME280;4028;43.272;26.932;2023-03-14T09:26:30;99180.22;;;18.11;23.79
7966;BME280;4028;43.272;26.932;2023-03-14T09:28:55;99182.06;;;18.53;23.39
7966;BME280;4028;43.272;26.932;2023-03-14T09:31:21;99173.22;;;18.59;22.62
7966;BME280;4028;43.272;26.932;2023-03-14T09:33:46;99159.19;;;18.08;23.22
7966;BME280;4028;43.272;26.932;2023-03-14T09:36:12;99163.97;;;18.34;22.79
7966;BME280;4028;43.272;26.932;2023-03-14T09:38:37;99156.00;;;18.47;23.28
7966;BME280;4028;43.272;26.932;2023-03-14T09:41:14;99149.69;;;18.83;23.01
7966;BME280;4028;43.272;26.932;2023-03-14T09:43:42;99146.38;;;19.15;22.33
7966;BME280;4028;43.272;26.932;2023-03-14T09:46:09;99129.25;;;19.16;21.99
7966;BME280;4028;43.272;26.932;2023-03-14T09:48:36;99128.69;;;19.28;22.24
7966;BME280;4028;43.272;26.932;2023-03-14T09:51:11;99128.03;;;19.19;20.41
7966;BME280;4028;43.272;26.932;2023-03-14T09:53:44;99127.41;;;19.17;20.71
7966;BME280;4028;43.272;26.932;2023-03-14T09:56:20;99121.03;;;18.55;21.30
7966;BME280;4028;43.272;26.932;2023-03-14T09:58:51;99124.84;;;17.90;21.21
7966;BME280;4028;43.272;26.932;2023-03-14T10:01:24;99126.63;;;17.47;21.50
7966;BME280;4028;43.272;26.932;2023-03-14T10:03:50;99115.88;;;17.61;21.76
7966;BME280;4028;43.272;26.932;2023-03-14T10:06:27;99119.75;;;17.59;20.84
7966;BME280;4028;43.272;26.932;2023-03-14T10:08:53;99108.94;;;17.67;21.71
7966;BME280;4028;43.272;26.932;2023-03-14T10:11:19;99116.63;;;17.91;21.61
7966;BME280;4028;43.272;26.932;2023-03-14T10:14:07;99098.91;;;17.54;21.76
7966;BME280;4028;43.272;26.932;2023-03-14T10:16:36;99094.28;;;17.27;22.41
7966;BME280;4028;43.272;26.932;2023-03-14T10:19:04;99092.47;;;17.70;22.76
7966;BME280;4028;43.272;26.932;2023-03-14T10:21:31;99079.66;;;18.30;22.59
7966;BME280;4028;43.272;26.932;2023-03-14T10:24:22;99090.84;;;18.68;21.85
7966;BME280;4028;43.272;26.932;2023-03-14T10:26:49;99048.25;;;18.52;21.68
7966;BME280;4028;43.272;26.932;2023-03-14T10:29:17;99069.22;;;18.69;22.35
7966;BME280;4028;43.272;26.932;2023-03-14T10:34:16;99053.50;;;18.32;22.06
7966;BME280;4028;43.272;26.932;2023-03-14T10:36:42;99057.19;;;18.31;22.72
7966;BME280;4028;43.272;26.932;2023-03-14T10:39:41;99041.22;;;18.44;22.05
7966;BME280;4028;43.272;26.932;2023-03-14T10:42:19;99046.69;;;17.80;22.41
7966;BME280;4028;43.272;26.932;2023-03-14T10:44:49;99037.84;;;17.36;22.39
7966;BME280;4028;43.272;26.932;2023-03-14T10:47:22;99044.59;;;17.75;22.39
7966;BME280;4028;43.272;26.932;2023-03-14T10:49:48;99040.00;;;17.90;22.44
7966;BME280;4028;43.272;26.932;2023-03-14T10:54:47;99023.69;;;18.07;22.36
7966;BME280;4028;43.272;26.932;2023-03-14T10:57:12;99015.09;;;18.18;21.63
7966;BME280;4028;43.272;26.932;2023-03-14T10:59:40;99016.47;;;18.42;21.88
7966;BME280;4028;43.272;26.932;2023-03-14T11:04:59;99000.63;;;18.47;21.23
7966;BME280;4028;43.272;26.932;2023-03-14T11:07:43;98994.22;;;18.83;20.40
7966;BME280;4028;43.272;26.932;2023-03-14T11:15:35;98969.13;;;19.04;20.31
7966;BME280;4028;43.272;26.932;2023-03-14T11:21:20;98958.91;;;18.25;20.88
7966;BME280;4028;43.272;26.932;2023-03-14T11:24:26;98946.06;;;18.55;20.93
7966;BME280;4028;43.272;26.932;2023-03-14T11:27:00;98942.84;;;18.73;20.25
7966;BME280;4028;43.272;26.932;2023-03-14T11:32:14;98929.28;;;18.87;19.76
7966;BME280;4028;43.272;26.932;2023-03-14T11:34:54;98926.75;;;18.73;20.23
7966;BME280;4028;43.272;26.932;2023-03-14T11:37:42;98909.47;;;18.68;19.25
7966;BME280;4028;43.272;26.932;2023-03-14T11:40:17;98910.56;;;18.39;19.99
7966;BME280;4028;43.272;26.932;2023-03-14T11:42:44;98906.09;;;17.77;20.22
7966;BME280;4028;43.272;26.932;2023-03-14T11:45:22;98898.72;;;17.86;20.19
7966;BME280;4028;43.272;26.932;2023-03-14T11:50:42;98888.56;;;18.03;20.00
7966;BME280;4028;43.272;26.932;2023-03-14T11:53:16;98883.59;;;17.72;20.89
7966;BME280;4028;43.272;26.932;2023-03-14T11:55:44;98886.94;;;18.15;21.01
7966;BME280;4028;43.272;26.932;2023-03-14T11:58:14;98875.97;;;18.58;20.80
7966;BME280;4028;43.272;26.932;2023-03-14T12:00:41;98874.38;;;18.63;20.54
7966;BME280;4028;43.272;26.932;2023-03-14T12:06:17;98855.06;;;19.01;20.15
7966;BME280;4028;43.272;26.932;2023-03-14T12:09:04;98854.66;;;19.17;20.38
7966;BME280;4028;43.272;26.932;2023-03-14T12:11:40;98845.81;;;19.17;20.69
7966;BME280;4028;43.272;26.932;2023-03-14T12:17:06;98836.06;;;18.83;21.25
7966;BME280;4028;43.272;26.932;2023-03-14T12:19:34;98828.06;;;18.89;20.95
7966;BME280;4028;43.272;26.932;2023-03-14T12:24:49;98827.22;;;19.22;20.10
7966;BME280;4028;43.272;26.932;2023-03-14T12:30:29;98804.53;;;18.72;19.75
7966;BME280;4028;43.272;26.932;2023-03-14T12:33:20;98811.03;;;18.42;20.48
7966;BME280;4028;43.272;26.932;2023-03-14T12:35:49;98805.22;;;18.26;20.04
7966;BME280;4028;43.272;26.932;2023-03-14T12:38:25;98802.75;;;18.17;20.16
7966;BME280;4028;43.272;26.932;2023-03-14T12:41:01;98799.25;;;18.24;20.29
7966;BME280;4028;43.272;26.932;2023-03-14T12:43:33;98791.22;;;18.30;20.04
7966;BME280;4028;43.272;26.932;2023-03-14T12:51:33;98782.63;;;18.48;19.49
7966;BME280;4028;43.272;26.932;2023-03-14T12:57:06;98770.38;;;18.12;19.47
7966;BME280;4028;43.272;26.932;2023-03-14T12:59:38;98776.84;;;18.44;19.44
7966;BME280;4028;43.272;26.932;2023-03-14T13:04:46;98760.16;;;18.62;19.49
7966;BME280;4028;43.272;26.932;2023-03-14T13:07:33;98764.50;;;18.63;18.64
7966;BME280;4028;43.272;26.932;2023-03-14T13:15:38;98747.72;;;18.08;19.32
7966;BME280;4028;43.272;26.932;2023-03-14T13:21:19;98757.09;;;17.91;18.84
7966;BME280;4028;43.272;26.932;2023-03-14T13:24:21;98756.66;;;17.81;18.97
7966;BME280;4028;43.272;26.932;2023-03-14T13:26:47;98742.75;;;17.57;19.26
7966;BME280;4028;43.272;26.932;2023-03-14T13:29:19;98734.31;;;17.60;19.53
7966;BME280;4028;43.272;26.932;2023-03-14T13:31:51;98721.56;;;17.62;19.42
7966;BME280;4028;43.272;26.932;2023-03-14T13:34:17;98731.09;;;17.72;19.27
7966;BME280;4028;43.272;26.932;2023-03-14T13:36:43;98721.47;;;17.84;19.59
7966;BME280;4028;43.272;26.932;2023-03-14T13:39:14;98718.81;;;17.90;19.07
7966;BME280;4028;43.272;26.932;2023-03-14T13:41:42;98709.69;;;17.72;19.72
7966;BME280;4028;43.272;26.932;2023-03-14T13:44:15;98704.63;;;17.42;19.90
7966;BME280;4028;43.272;26.932;2023-03-14T13:46:41;98703.25;;;17.18;20.21
7966;BME280;4028;43.272;26.932;2023-03-14T13:49:12;98697.91;;;17.25;20.05
7966;BME280;4028;43.272;26.932;2023-03-14T13:51:42;98692.91;;;17.08;19.90
7966;BME280;4028;43.272;26.932;2023-03-14T13:54:16;98683.31;;;16.86;19.94
7966;BME280;4028;43.272;26.932;2023-03-14T13:56:42;98682.00;;;16.75;20.27
7966;BME280;4028;43.272;26.932;2023-03-14T13:59:43;98667.97;;;16.45;20.63
7966;BME280;4028;43.272;26.932;2023-03-14T14:02:15;98671.19;;;16.62;20.82
7966;BME280;4028;43.272;26.932;2023-03-14T14:04:40;98659.03;;;16.81;20.74
7966;BME280;4028;43.272;26.932;2023-03-14T14:07:13;98659.59;;;16.76;20.88
7966;BME280;4028;43.272;26.932;2023-03-14T14:09:52;98660.03;;;16.80;20.61
7966;BME280;4028;43.272;26.932;2023-03-14T14:12:26;98657.03;;;16.89;20.75
7966;BME280;4028;43.272;26.932;2023-03-14T14:14:58;98656.09;;;16.76;20.99
7966;BME280;4028;43.272;26.932;2023-03-14T14:17:44;98647.88;;;16.77;21.08
7966;BME280;4028;43.272;26.932;2023-03-14T14:23:10;98608.31;;;16.10;21.30
7966;BME280;4028;43.272;26.932;2023-03-14T14:25:37;98629.53;;;16.40;21.79